createdAt,value
2019-05-03T00:02:44.061Z,78.99
2019-05-03T00:05:22.778Z,79.40
2019-05-03T00:07:53.603Z,79.79
2019-05-03T00:10:22.711Z,79.81
2019-05-03T00:12:52.797Z,80.32
2019-05-03T00:15:32.380Z,80.94
2019-05-03T00:18:02.394Z,80.99
2019-05-03T00:20:32.659Z,80.85
2019-05-03T00:23:02.944Z,80.83
2019-05-03T00:25:32.633Z,80.99
2019-05-03T00:28:01.956Z,81.00
2019-05-03T00:30:31.991Z,80.28
2019-05-03T00:33:02.933Z,80.28
2019-05-03T00:35:51.955Z,80.35
2019-05-03T00:38:21.805Z,80.42
2019-05-03T00:40:52.349Z,79.81
2019-05-03T00:43:22.240Z,79.61
2019-05-03T00:45:51.714Z,79.75
2019-05-03T00:48:21.966Z,80.26
2019-05-03T00:50:51.757Z,80.11
2019-05-03T00:53:22.374Z,80.25
2019-05-03T00:55:53.226Z,80.46
2019-05-03T00:58:22.410Z,80.40
2019-05-03T01:00:52.443Z,80.55
2019-05-03T01:03:22.046Z,81.19
2019-05-03T01:05:52.732Z,81.47
2019-05-03T01:08:22.045Z,81.73
2019-05-03T01:10:51.678Z,80.60
2019-05-03T01:13:21.898Z,80.58
2019-05-03T01:16:08.105Z,81.25
2019-05-03T01:18:37.408Z,81.47
2019-05-03T01:21:06.259Z,80.84
2019-05-03T01:23:35.281Z,80.46
2019-05-03T01:26:04.372Z,80.35
2019-05-03T01:28:33.116Z,80.57
2019-05-03T01:31:02.579Z,80.81
2019-05-03T01:33:32.276Z,81.44
2019-05-03T01:36:02.717Z,81.24
2019-05-03T01:38:32.026Z,80.77
2019-05-03T01:41:01.724Z,80.54
2019-05-03T01:43:31.699Z,80.74
2019-05-03T01:46:02.680Z,81.17
2019-05-03T01:48:56.527Z,81.22
2019-05-03T01:51:43.055Z,79.67
2019-05-03T01:54:12.293Z,79.08
2019-05-03T01:56:55.492Z,80.09
2019-05-03T01:59:13.522Z,80.98
2019-05-03T02:01:52.687Z,80.07
2019-05-03T02:04:29.496Z,80.16
2019-05-03T02:06:58.181Z,78.37
2019-05-03T02:09:26.928Z,77.36
2019-05-03T02:11:55.621Z,77.10
2019-05-03T02:14:24.326Z,76.69
2019-05-03T02:16:53.019Z,76.85
2019-05-03T02:19:22.139Z,76.78
2019-05-03T02:21:52.315Z,76.28
2019-05-03T02:24:22.209Z,76.36
2019-05-03T02:26:52.955Z,76.84
2019-05-03T02:29:21.972Z,76.55
2019-05-03T02:31:53.290Z,76.72
2019-05-03T02:34:23.715Z,75.61
2019-05-03T02:36:53.796Z,74.78
2019-05-03T02:39:23.030Z,74.91
2019-05-03T02:41:58.691Z,74.71
2019-05-03T02:44:26.425Z,74.01
2019-05-03T02:47:18.377Z,74.51
2019-05-03T02:49:56.190Z,74.92
2019-05-03T02:52:36.377Z,75.88
2019-05-03T02:55:11.513Z,75.11
2019-05-03T02:57:40.547Z,75.27
2019-05-03T03:00:11.474Z,74.85
2019-05-03T03:02:40.850Z,74.98
2019-05-03T03:05:10.213Z,75.04
2019-05-03T03:07:41.255Z,73.69
2019-05-03T03:10:11.832Z,74.14
2019-05-03T03:12:46.224Z,74.37
2019-05-03T03:15:16.213Z,74.17
2019-05-03T03:17:47.180Z,74.40
2019-05-03T03:20:16.977Z,73.80
2019-05-03T03:22:48.229Z,73.65
2019-05-03T03:25:21.875Z,73.93
2019-05-03T03:27:52.546Z,74.33
2019-05-03T03:30:49.989Z,74.09
2019-05-03T03:33:18.849Z,74.17
2019-05-03T03:35:48.836Z,73.31
2019-05-03T03:38:19.712Z,73.26
2019-05-03T03:40:49.522Z,73.07
2019-05-03T03:43:21.259Z,73.55
2019-05-03T03:45:51.774Z,73.09
2019-05-03T03:48:21.062Z,73.17
2019-05-03T03:50:55.916Z,71.95
2019-05-03T03:53:26.547Z,72.52
2019-05-03T03:55:57.218Z,72.34
2019-05-03T03:58:27.725Z,72.25
2019-05-03T04:00:56.820Z,72.57
2019-05-03T04:03:26.220Z,72.84
2019-05-03T04:05:55.687Z,72.32
2019-05-03T04:08:25.266Z,72.88
2019-05-03T04:10:55.836Z,72.92
2019-05-03T04:13:25.834Z,71.72
2019-05-03T04:16:02.461Z,71.90
2019-05-03T04:18:48.124Z,71.49
2019-05-03T04:21:16.877Z,71.92
2019-05-03T04:23:46.346Z,72.31
2019-05-03T04:26:16.311Z,72.33
2019-05-03T04:28:46.055Z,71.96
2019-05-03T04:31:15.369Z,72.64
2019-05-03T04:33:45.027Z,72.51
2019-05-03T04:36:16.023Z,72.78
2019-05-03T04:38:45.343Z,72.18
2019-05-03T04:41:15.931Z,72.48
2019-05-03T04:43:45.963Z,72.68
2019-05-03T04:46:26.025Z,72.32
2019-05-03T04:48:56.133Z,71.53
2019-05-03T04:51:25.817Z,69.60
2019-05-03T04:54:12.405Z,70.00
2019-05-03T04:56:41.149Z,70.10
2019-05-03T04:59:09.849Z,69.37
2019-05-03T05:01:38.907Z,68.95
2019-05-03T05:04:07.585Z,68.72
2019-05-03T05:06:36.327Z,69.02
2019-05-03T05:09:07.343Z,69.06
2019-05-03T05:11:36.168Z,69.33
2019-05-03T05:14:06.375Z,69.03
2019-05-03T05:16:35.697Z,68.54
2019-05-03T05:19:08.390Z,69.77
2019-05-03T05:21:48.506Z,69.50
2019-05-03T05:24:17.502Z,70.47
2019-05-03T05:26:52.214Z,69.78
2019-05-03T05:29:25.226Z,69.85
2019-05-03T05:31:54.879Z,69.58
2019-05-03T05:34:24.576Z,70.09
2019-05-03T05:36:55.303Z,70.08
2019-05-03T05:39:24.466Z,69.46
2019-05-03T05:41:55.445Z,69.73
2019-05-03T05:44:24.844Z,69.15
2019-05-03T05:47:15.468Z,69.08
2019-05-03T05:50:12.243Z,68.73
2019-05-03T05:52:40.948Z,68.60
2019-05-03T05:55:17.219Z,68.08
2019-05-03T05:58:05.058Z,68.41
2019-05-03T06:00:36.276Z,67.51
2019-05-03T06:03:05.318Z,67.60
2019-05-03T06:05:35.546Z,67.09
2019-05-03T06:08:30.853Z,66.05
2019-05-03T06:11:12.120Z,66.51
2019-05-03T06:13:45.145Z,66.16
2019-05-03T06:16:20.180Z,66.56
2019-05-03T06:19:11.581Z,66.15
2019-05-03T06:21:50.060Z,66.39
2019-05-03T06:24:24.989Z,66.34
2019-05-03T06:26:59.779Z,66.35
2019-05-03T06:29:28.731Z,67.31
2019-05-03T06:32:19.676Z,66.21
2019-05-03T06:34:48.373Z,66.10
2019-05-03T06:37:18.719Z,65.91
2019-05-03T06:39:47.745Z,66.88
2019-05-03T06:42:19.302Z,64.23
2019-05-03T06:44:47.168Z,66.70
2019-05-03T06:47:16.172Z,64.65
2019-05-03T06:49:48.417Z,63.73
2019-05-03T06:52:19.875Z,65.28
2019-05-03T06:54:48.567Z,66.71
2019-05-03T06:57:21.861Z,65.93
2019-05-03T07:00:10.446Z,67.03
2019-05-03T07:03:10.122Z,67.31
2019-05-03T07:05:56.730Z,64.78
2019-05-03T07:08:45.468Z,64.90
2019-05-03T07:11:15.477Z,65.47
2019-05-03T07:13:45.030Z,63.68
2019-05-03T07:16:14.927Z,62.53
2019-05-03T07:18:45.419Z,62.84
2019-05-03T07:21:15.249Z,60.67
2019-05-03T07:23:45.141Z,61.58
2019-05-03T07:26:15.047Z,59.03
2019-05-03T07:28:49.780Z,58.63
2019-05-03T07:31:15.251Z,60.54
2019-05-03T07:33:44.724Z,60.50
2019-05-03T07:36:15.323Z,59.91
2019-05-03T07:38:45.338Z,58.19
2019-05-03T07:41:16.668Z,58.93
2019-05-03T07:43:45.340Z,60.43
2019-05-03T07:46:14.740Z,59.46
2019-05-03T07:48:45.529Z,58.78
2019-05-03T07:51:14.551Z,58.17
2019-05-03T07:53:45.084Z,58.14
2019-05-03T07:56:15.806Z,57.61
2019-05-03T07:58:59.298Z,57.62
2019-05-03T08:01:25.820Z,57.99
2019-05-03T08:03:55.170Z,55.97
2019-05-03T08:06:24.717Z,55.83
2019-05-03T08:08:54.589Z,57.36
2019-05-03T08:11:24.889Z,57.80
2019-05-03T08:13:55.025Z,59.22
2019-05-03T08:16:25.063Z,61.46
2019-05-03T08:18:55.878Z,61.31
2019-05-03T08:21:25.342Z,59.86
2019-05-03T08:23:55.691Z,60.00
2019-05-03T08:26:25.731Z,59.75
2019-05-03T08:28:55.039Z,59.58
2019-05-03T08:31:41.843Z,59.55
2019-05-03T08:34:29.568Z,60.06
2019-05-03T08:37:05.136Z,60.93
2019-05-03T08:39:35.609Z,61.51
2019-05-03T08:42:09.665Z,61.75
2019-05-03T08:44:38.372Z,59.44
2019-05-03T08:47:07.203Z,58.25
2019-05-03T08:49:35.979Z,57.21
2019-05-03T08:52:05.454Z,60.07
2019-05-03T08:54:34.874Z,59.20
2019-05-03T08:57:05.994Z,59.98
2019-05-03T08:59:35.722Z,59.92
2019-05-03T09:02:14.065Z,56.62
2019-05-03T09:04:39.343Z,57.15
2019-05-03T09:07:06.974Z,54.93
2019-05-03T09:09:51.646Z,55.90
2019-05-03T09:12:20.616Z,55.79
2019-05-03T09:14:49.285Z,56.09
2019-05-03T09:17:17.973Z,57.16
2019-05-03T09:19:46.979Z,59.01
2019-05-03T09:22:15.751Z,57.35
2019-05-03T09:24:45.540Z,58.23
2019-05-03T09:27:15.453Z,55.33
2019-05-03T09:29:46.198Z,53.76
2019-05-03T09:32:14.852Z,55.00
2019-05-03T09:34:44.483Z,55.54
2019-05-03T09:37:15.343Z,54.43
2019-05-03T09:39:44.655Z,54.70
2019-05-03T09:42:15.466Z,54.15
2019-05-03T09:44:45.102Z,54.88
2019-05-03T09:47:16.517Z,54.12
2019-05-03T09:49:45.532Z,54.74
2019-05-03T09:52:16.048Z,51.13
2019-05-03T09:54:48.888Z,52.34
2019-05-03T09:57:18.974Z,52.49
2019-05-03T09:59:56.399Z,53.10
2019-05-03T10:02:18.178Z,51.27
2019-05-03T10:04:47.174Z,53.83
2019-05-03T10:07:15.952Z,53.32
2019-05-03T10:09:45.151Z,53.28
2019-05-03T10:12:18.549Z,53.95
2019-05-03T10:14:47.839Z,51.29
2019-05-03T10:17:51.008Z,47.88
2019-05-03T10:20:40.273Z,48.80
2019-05-03T10:23:19.854Z,49.75
2019-05-03T10:25:48.511Z,48.28
2019-05-03T10:28:17.550Z,47.34
2019-05-03T10:30:46.445Z,49.21
2019-05-03T10:33:20.217Z,48.03
2019-05-03T10:35:48.903Z,48.81
2019-05-03T10:38:18.030Z,47.10
2019-05-03T10:40:46.742Z,49.09
2019-05-03T10:43:15.702Z,49.37
2019-05-03T10:45:45.038Z,48.62
2019-05-03T10:48:15.505Z,49.78
2019-05-03T10:50:44.451Z,50.95
2019-05-03T10:53:27.945Z,50.98
2019-05-03T10:56:20.210Z,50.87
2019-05-03T10:58:46.762Z,51.16
2019-05-03T11:01:17.205Z,49.87
2019-05-03T11:03:45.897Z,48.10
2019-05-03T11:06:14.920Z,48.46
2019-05-03T11:08:45.124Z,48.13
2019-05-03T11:11:15.100Z,48.19
2019-05-03T11:13:44.166Z,47.89
2019-05-03T11:16:14.722Z,46.68
2019-05-03T11:18:45.451Z,46.89
2019-05-03T11:21:22.058Z,46.38
2019-05-03T11:23:45.008Z,47.62
2019-05-03T11:26:13.865Z,47.62
2019-05-03T11:28:44.731Z,49.27
2019-05-03T11:31:30.780Z,49.37
2019-05-03T11:36:46.568Z,49.00
2019-05-03T11:39:15.234Z,48.67
2019-05-03T11:41:47.136Z,50.02
2019-05-03T11:44:33.367Z,50.86
2019-05-03T11:47:02.336Z,51.89
2019-05-03T11:49:31.051Z,51.65
2019-05-03T11:52:00.181Z,52.33
2019-05-03T11:54:29.273Z,51.61
2019-05-03T11:56:59.690Z,50.06
2019-05-03T11:59:28.715Z,47.83
2019-05-03T12:02:15.396Z,46.30
2019-05-03T12:04:45.852Z,46.64
2019-05-03T12:07:18.396Z,47.69
2019-05-03T12:09:47.632Z,47.71
2019-05-03T12:12:29.447Z,46.99
2019-05-03T12:15:01.145Z,46.17
2019-05-03T12:17:34.593Z,43.63
2019-05-03T12:20:04.700Z,43.81
2019-05-03T12:22:35.558Z,38.84
2019-05-03T12:25:09.862Z,39.23
2019-05-03T12:27:34.998Z,38.50
2019-05-03T12:30:05.012Z,41.21
2019-05-03T12:32:34.562Z,40.47
2019-05-03T12:35:06.090Z,38.78
2019-05-03T12:37:35.305Z,39.48
2019-05-03T12:40:05.514Z,42.01
2019-05-03T12:42:35.495Z,42.01
2019-05-03T12:45:04.656Z,42.51
2019-05-03T12:47:34.666Z,42.37
2019-05-03T12:50:05.458Z,43.84
2019-05-03T12:52:36.687Z,42.16
2019-05-03T12:55:05.343Z,42.70
2019-05-03T12:57:34.455Z,42.95
2019-05-03T13:00:15.649Z,41.41
2019-05-03T13:02:48.499Z,41.41
2019-05-03T13:05:17.469Z,41.48
2019-05-03T13:07:51.287Z,41.33
2019-05-03T13:10:22.649Z,41.33
2019-05-03T13:12:53.322Z,42.55
2019-05-03T13:15:21.400Z,44.14
2019-05-03T13:17:50.517Z,42.47
2019-05-03T13:20:19.533Z,42.47
2019-05-03T13:22:48.281Z,44.00
2019-05-03T13:25:17.121Z,44.12
2019-05-03T13:27:46.361Z,44.12
2019-05-03T13:30:16.225Z,44.14
2019-05-03T13:32:45.698Z,44.48
2019-05-03T13:35:15.144Z,44.53
2019-05-03T13:37:45.310Z,45.39
2019-05-03T13:40:15.350Z,43.62
2019-05-03T13:42:56.265Z,43.08
2019-05-03T13:45:14.904Z,45.24
2019-05-03T13:47:44.766Z,45.24
2019-05-03T13:50:15.137Z,43.16
2019-05-03T13:52:45.295Z,43.16
2019-05-03T13:55:14.927Z,43.09
2019-05-03T13:57:45.908Z,42.57
2019-05-03T14:00:15.266Z,43.42
2019-05-03T14:02:44.992Z,44.13
2019-05-03T14:05:15.553Z,43.68
2019-05-03T14:07:44.824Z,43.68
2019-05-03T14:10:14.527Z,41.67
2019-05-03T14:12:43.216Z,41.70
2019-05-03T14:15:14.905Z,41.55
2019-05-03T14:17:43.596Z,40.59
2019-05-03T14:20:22.931Z,42.39
2019-05-03T14:22:52.275Z,41.93
2019-05-03T14:25:24.562Z,44.09
2019-05-03T14:27:54.809Z,42.42
2019-05-03T14:30:25.272Z,41.96
2019-05-03T14:32:55.738Z,42.09
2019-05-03T14:35:25.126Z,41.89
2019-05-03T14:37:55.062Z,41.94
2019-05-03T14:40:25.070Z,41.85
2019-05-03T14:42:55.455Z,40.83
2019-05-03T14:45:25.558Z,41.17
2019-05-03T14:47:54.780Z,40.77
2019-05-03T14:50:25.492Z,40.17
2019-05-03T14:52:56.859Z,38.41
2019-05-03T14:55:34.576Z,40.88
2019-05-03T14:58:25.735Z,40.87
2019-05-03T15:01:00.201Z,41.06
2019-05-03T15:03:29.520Z,40.47
2019-05-03T15:05:58.583Z,40.47
2019-05-03T15:08:27.722Z,41.90
2019-05-03T15:10:56.651Z,41.90
2019-05-03T15:13:25.314Z,40.49
2019-05-03T15:15:54.682Z,40.47
2019-05-03T15:18:25.515Z,43.08
2019-05-03T15:20:54.982Z,41.87
2019-05-03T15:23:25.463Z,41.87
2019-05-03T15:25:54.778Z,41.78
2019-05-03T15:28:25.114Z,41.09
2019-05-03T15:30:55.381Z,43.01
2019-05-03T15:33:24.228Z,42.93
2019-05-03T15:35:55.123Z,42.59
2019-05-03T15:38:23.612Z,42.29
2019-05-03T15:40:54.627Z,42.56
2019-05-03T15:43:35.164Z,43.21
2019-05-03T15:46:25.658Z,42.43
2019-05-03T15:48:57.126Z,43.38
2019-05-03T15:51:25.807Z,43.40
2019-05-03T15:53:55.112Z,43.73
2019-05-03T15:56:25.240Z,43.89
2019-05-03T15:58:55.149Z,44.69
2019-05-03T16:01:25.717Z,43.81
2019-05-03T16:03:55.681Z,43.88
2019-05-03T16:06:24.804Z,44.44
2019-05-03T16:08:55.268Z,43.68
2019-05-03T16:11:25.369Z,43.58
2019-05-03T16:13:55.312Z,44.35
2019-05-03T16:16:25.681Z,45.42
2019-05-03T16:18:57.403Z,44.60
2019-05-03T16:21:26.122Z,45.06
2019-05-03T16:23:55.544Z,45.97
2019-05-03T16:26:25.001Z,45.93
2019-05-03T16:29:01.111Z,46.33
2019-05-03T16:31:29.798Z,46.39
2019-05-03T16:33:58.547Z,46.71
2019-05-03T16:36:27.259Z,46.36
2019-05-03T16:38:55.929Z,47.00
2019-05-03T16:41:24.938Z,48.04
2019-05-03T16:43:54.048Z,47.25
2019-05-03T16:46:22.764Z,47.04
2019-05-03T16:48:51.438Z,47.83
2019-05-03T16:51:20.828Z,47.62
2019-05-03T16:53:49.489Z,48.06
2019-05-03T16:56:18.170Z,49.02
2019-05-03T16:58:46.900Z,47.87
2019-05-03T17:01:17.895Z,48.18
2019-05-03T17:03:50.826Z,48.71
2019-05-03T17:06:45.219Z,49.34
2019-05-03T17:09:20.202Z,49.56
2019-05-03T17:12:06.134Z,49.71
2019-05-03T17:14:35.106Z,49.81
2019-05-03T17:17:04.640Z,50.16
2019-05-03T17:19:35.128Z,49.90
2019-05-03T17:22:05.570Z,50.76
2019-05-03T17:24:35.289Z,50.86
2019-05-03T17:27:04.578Z,50.93
2019-05-03T17:29:35.083Z,51.09
2019-05-03T17:32:04.880Z,50.43
2019-05-03T17:34:34.738Z,51.19
2019-05-03T17:37:04.978Z,51.58
2019-05-03T17:40:02.580Z,51.56
2019-05-03T17:42:49.617Z,51.56
2019-05-03T17:45:22.775Z,52.91
2019-05-03T17:47:51.951Z,52.21
2019-05-03T17:50:21.699Z,52.35
2019-05-03T17:53:19.774Z,51.71
2019-05-03T17:55:57.037Z,51.74
2019-05-03T17:58:31.534Z,51.73
2019-05-03T18:01:22.574Z,52.16
2019-05-03T18:04:03.890Z,52.86
2019-05-03T18:06:27.866Z,51.76
2019-05-03T18:09:09.777Z,51.92
2019-05-03T18:11:40.890Z,51.39
2019-05-03T18:14:10.043Z,50.93
2019-05-03T18:16:39.545Z,51.15
2019-05-03T18:19:08.652Z,50.10
2019-05-03T18:21:37.968Z,50.41
2019-05-03T18:24:06.907Z,50.07
2019-05-03T18:26:35.882Z,50.18
2019-05-03T18:29:06.104Z,50.17
2019-05-03T18:31:34.906Z,50.35
2019-05-03T18:34:06.231Z,50.00
2019-05-03T18:42:57.191Z,50.07
2019-05-03T18:45:45.311Z,50.92
2019-05-03T18:48:14.779Z,51.19
2019-05-03T18:50:45.484Z,50.74
2019-05-03T18:53:15.099Z,50.57
2019-05-03T18:55:44.441Z,50.87
2019-05-03T18:58:14.863Z,51.00
2019-05-03T19:00:44.058Z,50.97
2019-05-03T19:03:12.883Z,51.66
2019-05-03T19:05:45.353Z,51.31
2019-05-03T19:08:21.934Z,51.77
2019-05-03T19:10:57.494Z,51.94
2019-05-03T19:13:33.245Z,51.98
2019-05-03T19:16:07.716Z,52.72
2019-05-03T19:18:38.081Z,52.17
2019-05-03T19:21:07.188Z,52.08
2019-05-03T19:23:36.183Z,53.11
2019-05-03T19:26:05.634Z,52.96
2019-05-03T19:28:35.387Z,52.79
2019-05-03T19:31:05.456Z,52.84
2019-05-03T19:33:34.817Z,53.28
2019-05-03T19:36:05.012Z,53.00
2019-05-03T19:38:35.175Z,53.18
2019-05-03T19:41:04.349Z,54.23
2019-05-03T19:43:35.343Z,54.41
2019-05-03T19:46:04.641Z,54.49
2019-05-03T19:48:34.942Z,54.35
2019-05-03T19:51:05.585Z,53.35
2019-05-03T19:53:55.083Z,54.25
2019-05-03T19:56:25.583Z,53.99
2019-05-03T19:58:58.815Z,54.71
2019-05-03T20:01:46.925Z,54.35
2019-05-03T20:04:40.918Z,55.00
2019-05-03T20:07:38.141Z,55.08
2019-05-03T20:10:07.822Z,55.16
2019-05-03T20:12:36.812Z,55.21
2019-05-03T20:15:06.103Z,55.70
2019-05-03T20:17:34.805Z,55.62
2019-05-03T20:20:04.814Z,55.68
2019-05-03T20:22:35.130Z,55.85
2019-05-03T20:25:04.715Z,56.49
2019-05-03T20:27:35.195Z,56.29
2019-05-03T20:30:05.804Z,56.94
2019-05-03T20:32:34.666Z,57.12
2019-05-03T20:35:13.059Z,57.84
2019-05-03T20:37:34.374Z,57.58
2019-05-03T20:40:04.983Z,57.90
2019-05-03T20:43:07.782Z,58.07
2019-05-03T20:45:59.362Z,58.44
2019-05-03T20:48:28.110Z,58.58
2019-05-03T20:50:57.774Z,58.79
2019-05-03T20:53:26.664Z,59.10
2019-05-03T20:55:55.402Z,58.52
2019-05-03T20:58:25.213Z,58.76
2019-05-03T21:00:54.566Z,58.32
2019-05-03T21:03:24.777Z,58.78
2019-05-03T21:05:55.269Z,59.38
2019-05-03T21:08:25.496Z,59.86
2019-05-03T21:10:55.147Z,59.60
2019-05-03T21:13:25.253Z,60.32
2019-05-03T21:16:22.708Z,60.91
2019-05-03T21:19:00.894Z,61.12
2019-05-03T21:21:48.621Z,61.10
2019-05-03T21:24:41.801Z,60.93
2019-05-03T21:27:10.586Z,61.80
2019-05-03T21:29:50.653Z,61.31
2019-05-03T21:32:19.559Z,61.53
2019-05-03T21:34:48.578Z,62.12
2019-05-03T21:40:21.538Z,62.16
2019-05-03T21:42:50.052Z,62.44
2019-05-03T21:45:24.540Z,62.10
2019-05-03T21:48:10.152Z,63.01
2019-05-03T21:50:39.842Z,63.49
2019-05-03T21:53:08.516Z,63.45
2019-05-03T21:55:37.191Z,63.67
2019-05-03T21:58:05.944Z,64.95
2019-05-03T22:00:46.287Z,65.38
2019-05-03T22:03:15.438Z,66.50
2019-05-03T22:05:54.482Z,67.16
2019-05-03T22:08:15.162Z,68.43
2019-05-03T22:10:45.089Z,68.75
2019-05-03T22:13:15.357Z,69.50
2019-05-03T22:15:48.555Z,69.76
2019-05-03T22:18:21.891Z,69.09
2019-05-03T22:20:59.735Z,69.69
2019-05-03T22:23:46.440Z,69.91
2019-05-03T22:26:15.565Z,71.03
2019-05-03T22:28:44.502Z,72.32
2019-05-03T22:31:15.361Z,71.84
2019-05-03T22:33:44.693Z,72.23
2019-05-03T22:36:14.794Z,72.09
2019-05-03T22:38:45.380Z,71.43
2019-05-03T22:41:14.787Z,72.18
2019-05-03T22:43:45.647Z,72.03
2019-05-03T22:46:14.798Z,71.97
2019-05-03T22:48:46.366Z,72.33
2019-05-03T22:51:15.133Z,71.86
2019-05-03T22:53:44.881Z,72.22
2019-05-03T22:56:14.461Z,72.11
2019-05-03T22:58:43.174Z,71.96
2019-05-03T23:01:11.869Z,71.46
2019-05-03T23:03:44.892Z,71.16
2019-05-03T23:06:22.448Z,71.22
2019-05-03T23:08:45.775Z,71.85
2019-05-03T23:11:14.459Z,71.20
2019-05-03T23:13:45.015Z,71.62
2019-05-03T23:16:14.411Z,71.24
2019-05-03T23:18:44.356Z,71.20
2019-05-03T23:21:18.779Z,70.45
2019-05-03T23:23:51.759Z,71.79
2019-05-03T23:26:20.506Z,71.41
2019-05-03T23:28:49.201Z,71.55
2019-05-03T23:31:18.177Z,71.83
2019-05-03T23:33:47.173Z,71.09
2019-05-03T23:36:15.857Z,71.19
2019-05-03T23:38:45.369Z,71.53
2019-05-03T23:41:15.276Z,71.64
2019-05-03T23:43:45.104Z,72.41
2019-05-03T23:46:15.721Z,72.28
2019-05-03T23:48:44.788Z,71.96
2019-05-03T23:51:32.576Z,72.70
2019-05-03T23:54:02.254Z,71.79
2019-05-03T23:56:31.555Z,71.18
2019-05-03T23:59:00.244Z,72.33
